Raul Flores

Chefscout - Juan Aurich
4 Dez 2028
Montag
Verarbeitung

Persönlichkeit

Anpassungsfähigkeit (6) Ehrgeiz (13) Kontroverse (3) Loyalität (11) Druck (5) Professionalität (14) Fairness (19) Temperament (18)

Profil

Trainerstil Demokratisch
Lizenz Kontinentale A
Entschlossenheit 5
Menschenführung 6
Motivation 4
Disziplin 8
Arbeitszufriedenheit
100%
Ermüdung
0%
Rolle Chefscout
Gehalt 67.7K p/W
Vertrag 14.03.2030

Leistung

Verhalten Gut
Trainingseffektivität
31%
Spielerentwicklung
50%
Verletzungsprävention
30%
Taktische Umsetzung
20%

Letzte Ereignisse

Nahm an einer Scouting-Besprechung teil 14T her
Nahm an einer Scouting-Besprechung teil 21T her
Nahm an einer Scouting-Besprechung teil 28T her
Nahm an einer Scouting-Besprechung teil 35T her
Nahm an einer Scouting-Besprechung teil 42T her
Nahm an einer Scouting-Besprechung teil 49T her
Geburtstag 49T her
Nahm an einer Scouting-Besprechung teil 56T her

Aktuell beobachtet

152
Spieler Verein Status Fähigkeit Vertrauen Beobachtet Zuletzt beobachtet Letzte Stimme
Ryan Graydon Salford City Aktiv 112 / 114 40% 10 29.05.2028 -
Kimarni Smith Newport County Aktiv 95 / 100 40% 3 29.05.2028 -
Vyacheslav Grulev Nizhniy Novgorod Aktiv 115 / 109 40% 6 28.05.2028 -
Louis Flower Crawley Town Aktiv 99 / 92 40% 2 28.05.2028 -
Miro Arsenal Tula Aktiv 112 / 129 40% 8 27.05.2028 -
Emanuele Schimmenti Potenza Aktiv 118 / 118 40% 7 25.05.2028 -
Louis Appéré Cambridge United Aktiv 111 / 105 40% 6 25.05.2028 -
André Shinyashiki Plymouth Argyle Aktiv 103 / 101 40% 2 25.05.2028 -
Jack Vale Sorrento Aktiv 94 / 99 40% 7 24.05.2028 -
Guillaume Furrer Lecco Aktiv 118 / 96 40% 1 23.05.2028 -
Gabriele Gori Ascoli Aktiv 110 / 106 40% 3 22.05.2028 -
Tyler Roberts Mansfield Town Aktiv 98 / 94 40% 4 21.05.2028 -
Thomas Schlupp BA All Stars Aktiv 106 / 124 40% 6 19.05.2028 -
Kylian Kouassi Colchester United Aktiv 98 / 109 40% 1 16.05.2028 -
Matty Stevens AFC Wimbledon Aktiv 119 / 115 40% 7 14.05.2028 -
Emanuele Scipioni Monopoli Aktiv 111 / 100 40% 2 14.05.2028 -
Luca Vido Union Brescia Aktiv 107 / 119 40% 3 09.05.2028 -
Joshua Ajala Walsall Aktiv 111 / 101 40% 3 08.05.2028 -
Gennaro Tutino Sampdoria Aktiv 118 / 134 40% 1 08.05.2028 -
Kyle Wootton Stockport County Aktiv 124 / 124 40% 4 07.05.2028 -
Layton Stewart Barnet Aktiv 109 / 108 40% 2 07.05.2028 -
Wesley Pomba Rukh Aktiv 117 / 111 40% 3 06.05.2028 -
Timur Suleimanov Nizhniy Novgorod Aktiv 129 / 131 40% 2 06.05.2028 -
Gianluca D'Auria Potenza Aktiv 97 / 95 40% 1 06.05.2028 -
Paolo Yrizar Chernomorets Aktiv 88 / 100 40% 5 04.05.2028 -
Seidu Basit Ashanti Gold Aktiv 94 / 114 40% 6 02.05.2028 -
Nicola Rauti Vicenza Aktiv 113 / 102 40% 1 28.04.2028 -
Danny Butterworth Accrington Stanley Aktiv 103 / 89 40% 1 28.04.2028 -
Bashar Musa US Forces Armees Aktiv 80 / 88 40% 3 27.04.2028 -
Calum Kavanagh Oldham Athletic Aktiv 114 / 103 40% 3 27.04.2028 -
Justin Obikwu Queens Park Rangers Aktiv 102 / 121 40% 1 23.04.2028 -
Brayan Gil Baltika Aktiv 133 / 137 40% 2 22.04.2028 -
Alan Cisnero Exeter City Aktiv 93 / 110 40% 4 20.04.2028 -
Mikhail Ignatov Sochi Aktiv 121 / 120 40% 5 20.04.2028 -
Anthony Scully Shrewsbury Town Aktiv 89 / 100 40% 2 18.04.2028 -
Samuel Kalu Botev Plovdiv Aktiv 129 / 123 40% 4 15.04.2028 -
Marco Tumminello Benevento Aktiv 124 / 113 40% 2 13.04.2028 -
Johnson Amuzu Medeama Aktiv 99 / 99 40% 1 13.04.2028 -
Matthias Phaëton CSKA Sofia Aktiv 109 / 121 40% 2 12.04.2028 -
Kelly Saravanan Veracruz Aktiv 124 / 107 40% 1 10.04.2028 -
Fábio Jaló Barnsley Aktiv 103 / 116 40% 1 08.04.2028 -
Aaron Drinan Swindon Town Aktiv 115 / 108 40% 1 05.04.2028 -
Luis Caicedo Spartak 1918 Aktiv 93 / 109 40% 4 30.03.2028 -
Tyler Walton Bromley Aktiv 99 / 80 40% 1 30.03.2028 -
Simone Mazzocchi Cosenza Aktiv 129 / 113 40% 2 27.03.2028 -
Harry Leonard Rukh Aktiv 107 / 109 40% 4 21.03.2028 -
Ioannis Pittas CSKA Sofia Aktiv 118 / 109 40% 3 20.03.2028 -
Vegard Erlien Tromso Aktiv 129 / 116 40% 1 19.03.2028 -
Igor Neves Paysandu Aktiv 103 / 104 40% 1 17.03.2028 -
Victor Adeboyejo Cotonsport Garoua Aktiv 101 / 95 40% 2 16.03.2028 -
Papa Ndiaga Yade Oleksandriya Aktiv 100 / 110 40% 1 15.03.2028 -
Matías Contrera Hrvatski Dragovoljac Aktiv 103 / 103 40% 1 10.03.2028 -
Jalal Abdullai Molde Aktiv 131 / 125 40% 1 09.03.2028 -
Vladislav Sarveli Nizhniy Novgorod Aktiv 113 / 115 40% 2 07.03.2028 -
Ole Sæter Valerenga Aktiv 122 / 128 40% 1 06.03.2028 -
Erik Botheim Viking Aktiv 140 / 112 40% 4 05.03.2028 -
Juan Pablo Ramírez Chernomorets Aktiv 87 / 89 40% 2 03.03.2028 -
Sergio Riffo Kolkheti Aktiv 102 / 100 40% 5 29.02.2028 -
Dato Mchedlidze Tskhinvali Aktiv 99 / 101 40% 2 29.02.2028 -
Luca Meirelles Kudrivka Aktiv 121 / 130 40% 3 25.02.2028 -
Pedro Marques Apollon Aktiv 122 / 112 40% 1 25.02.2028 -
Stephen Humphrys Bradford City Aktiv 124 / 116 40% 2 24.02.2028 -
Mohamed Ofkir Valerenga Aktiv 108 / 112 40% 1 20.02.2028 -
François Kamano Sochi Aktiv 116 / 130 40% 1 20.02.2028 -
Indiana Vassilev Philadelphia Union Aktiv 118 / 113 40% 2 19.02.2028 -
Timo Werner San Jose Earthquakes Aktiv 134 / 118 40% 2 18.02.2028 -
Vladimir Khubulov Dinamo Makhachkala Aktiv 99 / 119 40% 1 12.02.2028 -
Sagir Arce Saburtalo Aktiv 112 / 115 40% 1 11.02.2028 -
Leandro Suhr Boston River Aktiv 115 / 111 40% 2 10.02.2028 -
Nahuel Sena Cerro Aktiv 109 / 107 40% 1 10.02.2028 -
Jonás Luna Wanderers Aktiv 128 / 132 40% 1 10.02.2028 -
Federico Martínez MFK Ruzomberok Aktiv 132 / 115 40% 6 08.02.2028 -
Alejo Cruz Juventud Aktiv 127 / 121 40% 1 08.02.2028 -
Ivo Costantino River Plate Aktiv 108 / 110 40% 1 08.02.2028 -
Juan Mendoza Güemes Aktiv 98 / 98 40% 1 05.01.2028 -
Lautaro Gordillo Colegiales Aktiv 108 / 114 40% 1 05.01.2028 -
Lorent Tolaj Plymouth Argyle Aktiv 117 / 113 40% 2 28.06.2027 -
Malik Mothersille Stockport County Aktiv 114 / 119 40% 1 14.06.2027 -
Matej Trusa DAC Dunajska Streda Aktiv 129 / 128 40% 3 31.12.2026 -
Yeangel Montero Naxxar Lions Aktiv 104 / 93 40% 1 26.11.2026 -
Gabriel Monjes Hamrun Spartans Aktiv 82 / 97 40% 1 22.11.2026 -
Brayan Alcócer Oleksandriya Aktiv 94 / 100 40% 1 21.11.2026 -
Luka Jović CFR Cluj Aktiv 147 / 146 40% 2 20.11.2026 -
Armstrong Oko-Flex Levski Aktiv 123 / 103 40% 6 18.11.2026 -
Germán Berterame Inter Miami CF Aktiv 121 / 128 40% 2 17.11.2026 -
Marcos Cuenca Zaragoza Aktiv 107 / 113 40% 6 16.11.2026 -
Martin Sekulić Ural Aktiv 115 / 121 40% 3 16.11.2026 -
Job Ochieng Real Sociedad Aktiv 93 / 98 40% 2 14.11.2026 -
Callum Robinson Poltava Aktiv 119 / 107 40% 1 14.11.2026 -
Rodrigo Mosqueira Stjarnan Aktiv 102 / 122 40% 6 13.11.2026 -
Jorge Gonzalez Viitorul Aktiv 88 / 99 40% 2 12.11.2026 -
Petar Musa FC Dallas Aktiv 125 / 141 40% 1 12.11.2026 -
Ammar Ramadan DAC Dunajska Streda Aktiv 134 / 127 40% 4 11.11.2026 -
Marcelo Torres Gimnasia La Plata Aktiv 116 / 118 40% 7 10.11.2026 -
Jáder Valencia Deportes Tolima Aktiv 117 / 108 40% 1 09.11.2026 -
David Mazuch FK Senica Aktiv 104 / 92 40% 1 01.11.2026 -
Kwadwo Duah Ludogorets Aktiv 137 / 133 40% 4 30.10.2026 -
Nicolás Sosa Racing Aktiv 120 / 119 40% 2 29.10.2026 -
Denzel Jubitana Neftchi Aktiv 126 / 119 40% 1 28.10.2026 -
Dylan Cabral Arsenal Aktiv 94 / 95 40% 2 27.10.2026 -
Gaspar Duarte Rosario Central Aktiv 110 / 118 40% 1 23.10.2026 -
Adalberto Peñaranda Deportivo Tachira Aktiv 118 / 114 40% 6 19.10.2026 -
Mustapha Sangaré Levski Aktiv 113 / 132 40% 2 19.10.2026 -
Julen Lobete Málaga Aktiv 111 / 103 40% 1 19.10.2026 -
Daniel Nikolic Haladas Aktiv 101 / 92 40% 1 16.10.2026 -
Alejandro Rincon Llaneros Aktiv 96 / 93 40% 2 11.10.2026 -
Mohamed Konaté Akhmat Grozny Aktiv 113 / 97 40% 1 11.10.2026 -
César Magallan Estudiantes de Merida Aktiv 105 / 107 40% 3 07.10.2026 -
Albin Andersson Falkenberg Aktiv 111 / 104 40% 1 07.10.2026 -
Rafael Arace Caracas Aktiv 100 / 108 40% 2 06.10.2026 -
Brandon Hanlan Doncaster Rovers Aktiv 100 / 104 40% 1 04.10.2026 -
José Rivas Gamboa Trujillanos Aktiv 97 / 105 40% 3 28.09.2026 -
Marco Bustillo Zamora Aktiv 105 / 105 40% 2 26.09.2026 -
Ramiro Ruiz Rodríguez Atlético Tucumán Aktiv 127 / 125 40% 6 24.09.2026 -
Mauricio Márquez Caracas Aktiv 103 / 93 40% 3 23.09.2026 -
Thiago Ponce Rosario Central Aktiv 90 / 104 40% 1 23.09.2026 -
Carlos Ramírez Zulia Aktiv 104 / 90 40% 3 20.09.2026 -
Luciano Inverso Betis Aktiv 97 / 125 40% 1 19.09.2026 -
Gonzalo Tapia Palestino Aktiv 106 / 94 40% 2 17.09.2026 -
Maximo Ingravidi Colón Aktiv 99 / 109 40% 1 17.09.2026 -
Nahuel Roldán Deportivo La Coruña Aktiv 90 / 98 40% 1 16.09.2026 -
Diego Méndez Tacuarembo Aktiv 100 / 84 40% 2 14.09.2026 -
Alberto Benítez Villalba Torpedo Kutaisi Aktiv 103 / 95 40% 3 13.09.2026 -
Jonathan Cañete Portuguesa Aktiv 115 / 102 40% 3 12.09.2026 -
Timothy Zechariah Rivers United Aktiv 100 / 100 40% 1 12.09.2026 -
José Pérez Portuguesa Aktiv 99 / 86 40% 1 11.09.2026 -
Richard Celis Zamora Aktiv 104 / 107 40% 2 08.09.2026 -
Ronny Maza Aragua Aktiv 91 / 108 40% 2 08.09.2026 -
Tobías Ganduglia Independiente Rivadavia Aktiv 96 / 97 40% 1 08.09.2026 -
Genaro Rossi San Martín SJ Aktiv 109 / 103 40% 3 03.09.2026 -
Fabián Ahumada Samtredia Aktiv 79 / 104 40% 1 02.09.2026 -
Lucas González Nacional Aktiv 110 / 106 40% 2 01.09.2026 -
Ronaldo Peña Deportivo Lara Aktiv 97 / 94 40% 3 01.09.2026 -
Alexander Rondón Oliveros Deportivo Tachira Aktiv 95 / 96 40% 1 31.08.2026 -
Rodrigo Pollero Deportivo Tachira Aktiv 111 / 99 40% 3 30.08.2026 -
Maksim Samorodov Akhmat Grozny Aktiv 109 / 127 40% 1 30.08.2026 -
Dávid Ďuriš Rosenborg Aktiv 118 / 132 40% 1 29.08.2026 -
Junior Paredes Trujillanos Aktiv 105 / 112 40% 1 27.08.2026 -
Rafael Moreno Atletico Venezuela Aktiv 110 / 114 40% 1 27.08.2026 -
Eryc Castillo Alianza Lima Aktiv 112 / 130 40% 1 20.08.2026 -
Miguel Celis Estudiantes de Merida Aktiv 93 / 96 40% 1 18.08.2026 -
Jeriel De Santis Caracas Aktiv 103 / 111 40% 1 16.08.2026 -
Exon Arzú Carabobo Aktiv 100 / 101 40% 2 15.08.2026 -
José Balza Deportivo Tachira Aktiv 104 / 109 40% 1 15.08.2026 -
Italo Regalado Cesar Vallejo Aktiv 110 / 108 40% 1 11.08.2026 -
Richard Figueroa Deportivo Lara Aktiv 109 / 95 40% 1 04.08.2026 -
Kyle Joseph Middlesbrough Aktiv 101 / 111 40% 1 04.08.2026 -
Santiago González Sporting Cristal Aktiv 121 / 126 40% 1 04.08.2026 -
Alexander Guerra Estudiantes de Merida Aktiv 96 / 88 40% 1 04.08.2026 -
Nicolás Contín Gimnasia y Tiro Aktiv 110 / 108 40% 1 01.08.2026 -
Octavio Bianchi Gimnasia y Esgrima Aktiv 111 / 105 40% 1 01.08.2026 -
Emiliano González Almagro Aktiv 120 / 104 40% 1 01.08.2026 -